Aérodrome :
LOGIN :

S'inscrire | Disclaimer

   EN    FR    IT 

 










Légende :    VFR   VFR Marginal   IFR   IFR Intensif   IFR Très Intensif
Visi : 
Plafond : 
>= 8 km
>= 3000ft
5 à 8 km
1000 à 3000 ft
1500m à 5 km
500 à 1000 ft
800 à 1500m
200 à 500 ft
< 800m
< 200 ft
Symboles :   Orages  Brouillard  Fortes neiges  Fortes précipitations  Vent > 20 kt
SIGMETs :   Divers  Orages  Givrage  Turbulence  Onde Orograph.  Cendres Volcan.







- Altitude de l'aérodrome : 83 ft
- Code IATA : LHR
- Voir les cartes d'approche


EGLL - London Heathrow

DERNIER METAR :
  • 222120Z AUTO 09002KT 9999 NCD 17/07 Q1002

METARs EXPIRÉS :
  • 222050Z AUTO 12003KT 9999 NCD 19/07 Q1002
  • 222020Z AUTO 16005KT 9999 NCD 19/06 Q1002 NOSIG
  • 221950Z AUTO 16005KT 9999 NCD 20/06 Q1002 NOSIG
  • 221920Z AUTO 15006KT 9999 NCD 20/06 Q1002
  • 221850Z AUTO 15006KT 9999 NCD 21/06 Q1002 NOSIG

TAF TAF EGLL
Valide du 22 à 18h jusqu'au 24 à 00h UTC


221650Z 2218/2324 16010KT CAVOK
BECMG 2221/2224 03003KT
PROB40 2222/2308 6000
BECMG 2312/2315 09010KT
Pas de NOTAMs connus pour ce terrain.



MET'MAP, la Météo Aéronautique d'un coup d'oeil ! - Copyright ORBIFLY Décembre 2007 - Disclaimer

ORBIFLY MET'MAP TEAM :

Programmation & Développement : Alexandra Zaïnal
Conception & Développement : Baudouin d'Aumeries
Co-Programmation & Développement : Marc-Olivier Méhu
Soutien technique & logistique : Manuel Goepfert

Contact : metmap@orbifly.com




SOURCES & CREDITS :

   NOAA